Dades de l'estació automàtica el Prat de Llobregat

?
?

Resum diari

22:30 TU
Dades diàries de l'estació meteorològica
Temperatura mitjana 13.6 °C
Temperatura màxima 21.4 °C 13:07 TU
Temperatura mínima 8.8 °C 18:15 TU
Humitat relativa mitjana 76%
Precipitació acumulada 0.0 mm
Ratxa màxima del vent (10 m) 29.2 km/h - 295º 8:33 TU
Irradiació solar global 8.1 MJ/m2

El tram horari està expressat en Temps Universal (TU). Cal sumar una hora en horari d'hivern i dues en horari d'estiu per passar a l'hora oficial.

el Prat de Llobregat

Metadades estació meteorològica
Municipi El Prat de Llobregat
Comarca Baix Llobregat
Altitud 8 m
Data alta 22.03.2011
Estat actual Operativa
Dades de període
Període
TU
TM
°C
TX
°C
TN
°C
HRM
%
PPT
mm
VVM (10 m)
km/h
DVM (10 m)
graus
VVX (10 m)
km/h
RS
W/m2
00:00 - 00:30 14.8 15.1 14.0 76 0.0 7.9 5 20.5 0
00:30 - 01:00 13.7 14.2 12.7 80 0.0 5.0 5 9.4 0
01:00 - 01:30 12.0 12.6 11.8 88 0.0 5.0 302 9.0 0
01:30 - 02:00 12.1 12.4 11.8 90 0.0 6.8 303 14.8 0
02:00 - 02:30 12.4 12.4 12.3 88 0.0 7.2 314 14.0 0
02:30 - 03:00 12.1 12.2 11.9 88 0.0 6.5 314 12.2 0
03:00 - 03:30 11.9 12.0 11.7 89 0.0 7.6 304 15.1 0
03:30 - 04:00 12.0 12.0 11.9 87 0.0 7.2 318 18.7 0
04:00 - 04:30 11.7 12.0 11.5 87 0.0 6.1 317 13.7 0
04:30 - 05:00 11.6 11.7 11.4 88 0.0 7.9 311 20.2 0
05:00 - 05:30 11.5 11.7 11.2 87 0.0 6.8 313 14.8 0
05:30 - 06:00 11.5 12.0 11.3 87 0.0 9.7 313 20.5 0
06:00 - 06:30 12.1 12.2 12.0 83 0.0 10.8 316 22.0 0
06:30 - 07:00 12.1 12.3 12.0 82 0.0 9.7 316 21.6 0
07:00 - 07:30 11.5 12.1 11.0 84 0.0 8.3 304 19.1 12
07:30 - 08:00 12.3 12.9 11.4 81 0.0 12.2 312 25.6 73
08:00 - 08:30 13.4 13.9 12.9 75 0.0 12.6 311 24.8 147
08:30 - 09:00 14.3 14.8 13.9 70 0.0 14.8 311 29.2 220
09:00 - 09:30 15.6 16.2 14.9 65 0.0 10.8 321 24.8 285
09:30 - 10:00 16.3 16.9 16.0 63 0.0 10.4 305 21.6 343
10:00 - 10:30 17.3 17.6 16.9 60 0.0 9.7 297 19.4 391
10:30 - 11:00 17.9 18.3 17.5 57 0.0 9.7 291 18.4 404
11:00 - 11:30 18.8 19.3 18.1 55 0.0 8.6 292 15.1 436
11:30 - 12:00 19.4 20.1 19.0 52 0.0 9.0 284 15.1 450
12:00 - 12:30 19.8 20.1 19.5 48 0.0 8.6 271 14.8 420
12:30 - 13:00 19.9 20.9 19.5 45 0.0 5.8 211 12.2 404
13:00 - 13:30 20.9 21.4 20.3 39 0.0 2.2 164 9.0 379
13:30 - 14:00 19.8 20.7 19.1 44 0.0 2.5 198 6.8 178
14:00 - 14:30 18.3 19.1 17.6 53 0.0 5.0 160 8.6 107
14:30 - 15:00 17.5 18.7 17.1 55 0.0 5.4 151 9.4 130
15:00 - 15:30 18.9 19.3 18.4 52 0.0 5.0 176 9.7 131
15:30 - 16:00 17.4 19.2 16.0 57 0.0 5.0 208 8.3 55
16:00 - 16:30 14.2 15.9 12.6 72 0.0 6.1 192 9.0 8
16:30 - 17:00 12.1 12.6 11.3 80 0.0 4.7 187 9.0 0
17:00 - 17:30 10.4 11.2 9.9 86 0.0 2.5 242 3.6 0
17:30 - 18:00 9.7 9.9 9.4 91 0.0 1.1 256 4.7 0
18:00 - 18:30 9.0 9.4 8.8 93 0.0 4.7 280 9.7 0
18:30 - 19:00 9.9 10.1 9.4 92 0.0 5.4 289 8.6 0
19:00 - 19:30 10.5 10.9 10.0 88 0.0 6.8 298 11.2 0
19:30 - 20:00 10.8 11.2 10.2 85 0.0 7.6 293 11.9 0
20:00 - 20:30 10.1 10.2 9.9 88 0.0 8.6 290 14.0 0
20:30 - 21:00 10.0 10.1 9.9 89 0.0 9.4 296 15.8 0
21:00 - 21:30 10.0 10.1 9.9 89 0.0 10.4 290 16.6 0
21:30 - 22:00 9.6 9.9 9.3 90 0.0 8.6 284 13.0 0
22:00 - 22:30 9.6 9.8 9.6 91 0.0 10.4 289 15.5 0
22:30 - 23:00 9.8 9.8 9.7 90 0.0 10.8 285 17.6 0

Les dades en taronja només han passat un control de qualitat automàtic. Resta pendent la seva validació definitiva.